Time;durP1;ratioP1;P1;durP2;ratioP2;P2;SDS_P1;SDS_P2;PMS_P1;PMS_P2;Temp;Humidity;BMP_temperature;BMP_pressure;BME280_temperature;BME280_humidity;BME280_pressure;Samples;Min_cycle;Max_cycle;Signal;HPM_P1;HPM_P2
2023/05/09 00:01:16;;;;;;;65.03;36.85;;;15.00;99.90;;;;;;5023239;28;20115;-83
2023/05/09 00:03:42;;;;;;;62.63;36.78;;;15.00;99.90;;;;;;5023337;28;20133;-83
2023/05/09 00:06:08;;;;;;;56.67;35.00;;;14.90;99.90;;;;;;5022815;28;20724;-83
2023/05/09 00:08:34;;;;;;;59.78;35.53;;;14.90;99.90;;;;;;5040421;28;20033;-83
2023/05/09 00:11:01;;;;;;;62.67;36.08;;;14.90;99.90;;;;;;5021132;28;20041;-83
2023/05/09 00:13:27;;;;;;;62.15;36.50;;;14.90;99.90;;;;;;5023508;28;20384;-83
2023/05/09 00:15:52;;;;;;;58.25;35.63;;;15.10;99.90;;;;;;5020812;28;20053;-83
2023/05/09 00:18:21;;;;;;;58.75;36.28;;;14.90;99.90;;;;;;5039278;28;20042;-82
2023/05/09 00:20:47;;;;;;;59.65;36.53;;;14.90;99.90;;;;;;5041583;28;20046;-83
2023/05/09 00:23:12;;;;;;;58.63;35.50;;;14.90;99.90;;;;;;5026489;28;20092;-84
2023/05/09 00:25:38;;;;;;;75.35;38.38;;;14.90;99.90;;;;;;5025369;28;20041;-83
2023/05/09 00:28:04;;;;;;;58.17;35.53;;;14.90;99.90;;;;;;5023868;28;20419;-83
2023/05/09 00:30:30;;;;;;;69.13;37.05;;;14.90;99.90;;;;;;5020923;28;20553;-82
2023/05/09 00:32:55;;;;;;;76.40;39.78;;;14.90;99.90;;;;;;5022469;28;20088;-82
2023/05/09 00:35:21;;;;;;;68.47;39.03;;;14.90;99.90;;;;;;5022198;28;20476;-83
2023/05/09 00:37:46;;;;;;;68.93;37.50;;;14.90;99.90;;;;;;5005398;28;20399;-83
2023/05/09 00:40:12;;;;;;;62.42;34.70;;;14.90;99.90;;;;;;5019689;28;20041;-83
2023/05/09 00:42:38;;;;;;;70.05;36.42;;;14.80;99.90;;;;;;5021628;28;20041;-83
2023/05/09 00:45:04;;;;;;;64.53;35.13;;;14.80;99.90;;;;;;5023189;28;20562;-82
2023/05/09 00:47:30;;;;;;;64.93;35.65;;;14.70;99.90;;;;;;5020349;28;20087;-82
2023/05/09 00:49:57;;;;;;;73.05;39.88;;;14.70;99.90;;;;;;5023454;28;20048;-83
2023/05/09 00:52:24;;;;;;;70.53;39.58;;;14.70;99.90;;;;;;5023158;28;20118;-83
2023/05/09 00:54:54;;;;;;;64.13;39.25;;;14.70;99.90;;;;;;5021300;28;20925;-83
2023/05/09 00:57:21;;;;;;;74.05;40.63;;;14.70;99.90;;;;;;5022362;28;20088;-84
2023/05/09 00:59:47;;;;;;;71.07;39.65;;;14.70;99.90;;;;;;5022479;28;20536;-83
2023/05/09 01:02:14;;;;;;;68.85;39.03;;;14.60;99.90;;;;;;5023871;28;20033;-83
2023/05/09 01:04:41;;;;;;;66.85;39.00;;;14.60;99.90;;;;;;5024119;28;20042;-83
2023/05/09 01:07:34;;;;;;;73.53;39.72;;;14.50;99.90;;;;;;5022958;28;20396;-83
2023/05/09 01:10:20;;;;;;;60.60;37.20;;;14.50;99.90;;;;;;5022054;28;20049;-83
2023/05/09 01:13:00;;;;;;;67.13;36.20;;;14.60;99.90;;;;;;5017818;28;20054;-83
2023/05/09 01:15:30;;;;;;;69.93;37.42;;;14.50;99.90;;;;;;5032030;28;20525;-83
2023/05/09 01:18:22;;;;;;;65.03;36.38;;;14.40;99.90;;;;;;5000302;28;20407;-83
2023/05/09 01:21:07;;;;;;;63.83;36.13;;;14.40;99.90;;;;;;5000159;28;20047;-83
2023/05/09 01:23:59;;;;;;;70.85;38.83;;;14.40;99.90;;;;;;5015149;28;20044;-83
2023/05/09 01:26:44;;;;;;;72.20;39.22;;;14.40;99.90;;;;;;5030673;28;20041;-83
2023/05/09 01:29:28;;;;;;;68.05;35.83;;;14.40;99.90;;;;;;5001427;28;20512;-83
2023/05/09 01:31:56;;;;;;;71.85;37.80;;;14.30;99.90;;;;;;5016054;28;20103;-83
2023/05/09 01:34:25;;;;;;;65.78;37.92;;;14.30;99.90;;;;;;5016290;28;20038;-82
2023/05/09 01:36:57;;;;;;;64.05;37.08;;;14.30;99.90;;;;;;5016393;28;20455;-84
2023/05/09 01:39:25;;;;;;;75.90;39.58;;;14.30;99.90;;;;;;5031827;28;20055;-82
2023/05/09 01:41:54;;;;;;;67.45;36.88;;;14.30;99.90;;;;;;5013225;28;20069;-83
2023/05/09 01:44:21;;;;;;;65.35;38.30;;;14.10;99.90;;;;;;5049973;28;20096;-83
2023/05/09 01:46:49;;;;;;;65.72;38.85;;;14.30;99.90;;;;;;5019335;28;20124;-83
2023/05/09 01:49:15;;;;;;;65.38;37.70;;;14.30;99.90;;;;;;5014737;28;20056;-83
2023/05/09 01:51:43;;;;;;;60.70;35.72;;;14.40;99.90;;;;;;5031645;28;20080;-83
2023/05/09 01:54:10;;;;;;;62.67;36.25;;;14.40;99.90;;;;;;5013930;28;20640;-83
2023/05/09 01:56:38;;;;;;;64.57;36.78;;;14.50;99.90;;;;;;5015144;28;20042;-83
2023/05/09 01:59:06;;;;;;;66.80;36.67;;;14.40;99.90;;;;;;5018319;28;20048;-83
2023/05/09 02:01:32;;;;;;;62.00;36.35;;;14.40;99.90;;;;;;5020573;28;20083;-82
2023/05/09 02:03:58;;;;;;;57.45;35.33;;;14.50;99.90;;;;;;5019796;28;20041;-83
2023/05/09 02:06:28;;;;;;;80.50;38.70;;;14.40;99.90;;;;;;5018960;28;20033;-83
2023/05/09 02:08:54;;;;;;;70.20;34.28;;;14.40;99.90;;;;;;5020271;28;20038;-82
2023/05/09 02:11:20;;;;;;;48.83;32.08;;;14.40;99.90;;;;;;5020100;28;20506;-83
2023/05/09 02:13:46;;;;;;;58.75;30.95;;;14.40;99.90;;;;;;5022283;28;20046;-83
2023/05/09 02:16:12;;;;;;;48.08;30.20;;;14.30;99.90;;;;;;5021308;28;20053;-83
2023/05/09 02:18:37;;;;;;;40.17;26.85;;;14.30;99.90;;;;;;5023084;28;20056;-83
2023/05/09 02:21:03;;;;;;;49.40;29.80;;;14.30;99.90;;;;;;5022668;28;20048;-83
2023/05/09 02:23:29;;;;;;;48.80;31.02;;;14.30;99.90;;;;;;5024293;28;20042;-82
2023/05/09 02:25:55;;;;;;;63.22;33.63;;;14.30;99.90;;;;;;5035818;28;20461;-83
2023/05/09 02:28:22;;;;;;;56.90;32.80;;;14.30;99.90;;;;;;5052290;28;20045;-83
2023/05/09 02:30:49;;;;;;;68.97;35.55;;;14.20;99.90;;;;;;5023232;28;20072;-82
2023/05/09 02:33:15;;;;;;;65.65;35.35;;;14.30;99.90;;;;;;5004917;28;20124;-83
2023/05/09 02:35:43;;;;;;;73.90;36.38;;;14.20;99.90;;;;;;5003396;28;20041;-83
2023/05/09 02:38:10;;;;;;;61.97;34.38;;;14.30;99.90;;;;;;5021013;28;20069;-83
2023/05/09 02:40:36;;;;;;;57.83;34.13;;;14.30;99.90;;;;;;5001853;28;20106;-83
2023/05/09 02:43:01;;;;;;;59.78;33.80;;;14.20;99.90;;;;;;5023534;28;20038;-83
2023/05/09 02:45:27;;;;;;;56.67;34.85;;;14.30;99.90;;;;;;5051371;28;20055;-83
2023/05/09 02:47:53;;;;;;;59.65;35.13;;;14.50;99.90;;;;;;5020634;28;20033;-83
2023/05/09 02:50:18;;;;;;;52.45;31.45;;;14.30;99.90;;;;;;5022398;28;20049;-83
2023/05/09 02:52:44;;;;;;;50.95;29.58;;;14.30;99.90;;;;;;5003222;28;20948;-82
2023/05/09 02:55:10;;;;;;;67.93;35.17;;;14.30;99.90;;;;;;5017422;28;20040;-83
2023/05/09 02:57:36;;;;;;;67.55;34.15;;;14.30;99.90;;;;;;5019095;28;20049;-83
2023/05/09 03:00:03;;;;;;;53.88;31.02;;;14.30;99.90;;;;;;5020013;28;20045;-83
2023/05/09 03:02:28;;;;;;;53.70;30.67;;;14.30;99.90;;;;;;5055149;28;20707;-84
2023/05/09 03:04:54;;;;;;;36.92;24.60;;;14.30;99.90;;;;;;5018030;28;20041;-82
2023/05/09 03:07:19;;;;;;;38.97;25.27;;;14.20;99.90;;;;;;5019011;28;20099;-83
2023/05/09 03:09:45;;;;;;;47.28;28.00;;;14.30;99.90;;;;;;5019641;28;20045;-82
2023/05/09 03:12:11;;;;;;;34.10;22.80;;;14.20;99.90;;;;;;5002797;28;20044;-82
2023/05/09 03:14:36;;;;;;;37.47;23.65;;;14.30;99.90;;;;;;5016510;28;20053;-83
2023/05/09 03:17:02;;;;;;;41.50;26.10;;;14.20;99.90;;;;;;5020186;28;20398;-83
2023/05/09 03:19:28;;;;;;;34.33;22.00;;;14.20;99.90;;;;;;5017831;28;20045;-84
2023/05/09 03:21:53;;;;;;;47.03;27.33;;;14.10;99.90;;;;;;5005168;28;20037;-82
2023/05/09 03:24:19;;;;;;;38.63;24.45;;;14.10;99.90;;;;;;5016746;28;20045;-83
2023/05/09 03:26:44;;;;;;;60.33;18.85;;;14.20;99.90;;;;;;5016822;28;20038;-82
2023/05/09 03:29:10;;;;;;;42.17;22.98;;;14.10;99.90;;;;;;5019306;28;20034;-83
2023/05/09 03:31:35;;;;;;;83.93;36.60;;;14.00;99.90;;;;;;5018169;28;20045;-83
2023/05/09 03:34:01;;;;;;;73.97;36.10;;;14.20;99.90;;;;;;5018339;28;20033;-83
2023/05/09 03:36:26;;;;;;;64.47;35.00;;;14.00;99.90;;;;;;5017904;28;20121;-83
2023/05/09 03:38:52;;;;;;;72.20;35.97;;;14.10;99.90;;;;;;5019542;28;20080;-83
2023/05/09 03:41:18;;;;;;;70.72;36.58;;;14.10;99.90;;;;;;5019427;28;20037;-83
2023/05/09 03:43:44;;;;;;;74.43;40.45;;;14.20;99.90;;;;;;5017172;28;20056;-83
2023/05/09 03:46:09;;;;;;;71.55;39.65;;;14.20;99.90;;;;;;5015760;28;20041;-83
2023/05/09 03:48:35;;;;;;;74.53;41.78;;;14.20;99.90;;;;;;5017744;28;20523;-83
2023/05/09 03:51:01;;;;;;;64.32;38.78;;;14.20;99.90;;;;;;5018748;28;20105;-82
2023/05/09 03:53:27;;;;;;;69.60;40.33;;;14.30;99.90;;;;;;5019521;28;20116;-82
2023/05/09 03:55:53;;;;;;;85.55;45.58;;;14.30;99.90;;;;;;5016967;28;20499;-83
2023/05/09 03:58:18;;;;;;;88.40;45.35;;;14.40;99.90;;;;;;5019569;28;20033;-82
2023/05/09 04:00:44;;;;;;;100.32;49.03;;;14.40;99.90;;;;;;5016553;28;20045;-82
2023/05/09 04:03:10;;;;;;;87.63;44.47;;;14.50;99.90;;;;;;5024950;28;20042;-83
2023/05/09 04:05:36;;;;;;;87.85;44.47;;;14.50;99.90;;;;;;5024032;28;20511;-83
2023/05/09 04:08:03;;;;;;;84.40;43.55;;;14.50;99.90;;;;;;5054298;28;20066;-83
2023/05/09 04:10:29;;;;;;;85.10;46.20;;;14.50;99.90;;;;;;5024063;28;20144;-84
2023/05/09 04:12:55;;;;;;;96.68;47.97;;;14.60;99.90;;;;;;5024282;28;20091;-82
2023/05/09 04:15:21;;;;;;;102.65;50.83;;;14.60;99.90;;;;;;5052287;28;20079;-83
2023/05/09 04:17:46;;;;;;;103.93;49.50;;;14.60;99.90;;;;;;5020069;28;20029;-84
2023/05/09 04:20:12;;;;;;;95.32;48.92;;;14.60;99.90;;;;;;5023817;28;20046;-82
2023/05/09 04:22:38;;;;;;;109.68;52.35;;;14.60;99.90;;;;;;5005623;28;20551;-83
2023/05/09 04:25:04;;;;;;;101.05;51.25;;;14.70;99.90;;;;;;5002264;28;20098;-83
2023/05/09 04:27:30;;;;;;;98.45;50.30;;;14.70;99.90;;;;;;5037885;28;20038;-83
2023/05/09 04:29:56;;;;;;;91.78;50.33;;;14.70;99.90;;;;;;5023881;28;20759;-83
2023/05/09 04:32:22;;;;;;;95.22;51.08;;;14.70;99.90;;;;;;5020626;28;20041;-84
2023/05/09 04:34:48;;;;;;;109.53;54.03;;;14.70;99.90;;;;;;5022458;28;20045;-81
2023/05/09 04:37:13;;;;;;;105.53;53.55;;;14.70;99.90;;;;;;5025153;28;21361;-83
2023/05/09 04:39:39;;;;;;;147.18;59.78;;;14.80;99.90;;;;;;5021159;28;20049;-84
2023/05/09 04:42:05;;;;;;;120.85;61.70;;;14.80;99.90;;;;;;5020479;28;20057;-82
2023/05/09 04:44:31;;;;;;;128.35;62.00;;;14.90;99.90;;;;;;5034976;28;20428;-83
2023/05/09 04:47:23;;;;;;;123.53;60.97;;;14.90;99.90;;;;;;5020880;28;20046;-85
2023/05/09 04:49:49;;;;;;;156.40;65.90;;;14.90;99.90;;;;;;5012694;28;20519;-83
2023/05/09 04:52:16;;;;;;;123.45;61.65;;;14.90;99.90;;;;;;4988482;28;20045;-84
2023/05/09 04:54:44;;;;;;;116.25;60.90;;;15.10;99.90;;;;;;5008917;28;20045;-84
2023/05/09 04:57:09;;;;;;;143.38;66.93;;;14.90;99.90;;;;;;4989390;28;20073;-84
2023/05/09 04:59:36;;;;;;;152.57;68.53;;;15.00;99.90;;;;;;5022104;28;20438;-84
2023/05/09 05:02:02;;;;;;;167.60;71.57;;;15.70;99.90;;;;;;5022465;28;20041;-85
2023/05/09 05:04:32;;;;;;;133.80;64.38;;;15.00;99.90;;;;;;5022873;28;20037;-84
2023/05/09 05:07:00;;;;;;;153.30;68.53;;;15.00;99.90;;;;;;5054226;28;20423;-84
2023/05/09 05:09:26;;;;;;;136.57;63.60;;;15.00;99.90;;;;;;5021876;28;20045;-85
2023/05/09 05:11:51;;;;;;;118.00;61.50;;;15.10;99.90;;;;;;5009524;28;20038;-84
2023/05/09 05:14:20;;;;;;;137.68;67.10;;;15.10;99.90;;;;;;5004771;28;20033;-84
2023/05/09 05:16:45;;;;;;;148.40;68.85;;;15.10;99.90;;;;;;5019796;28;20451;-85
2023/05/09 05:19:11;;;;;;;131.80;64.95;;;15.10;99.90;;;;;;5019777;28;20033;-85
2023/05/09 05:21:37;;;;;;;114.43;62.45;;;15.10;99.90;;;;;;5027610;28;20119;-85
2023/05/09 05:24:03;;;;;;;127.88;63.85;;;15.20;99.90;;;;;;5028155;28;20037;-85
2023/05/09 05:26:28;;;;;;;132.68;67.05;;;15.10;99.90;;;;;;5025049;28;20045;-85
2023/05/09 05:28:55;;;;;;;125.03;66.57;;;15.30;99.90;;;;;;5021825;28;20045;-84
2023/05/09 05:31:21;;;;;;;134.80;66.05;;;15.20;99.90;;;;;;5020606;28;20045;-84
2023/05/09 05:33:50;;;;;;;115.32;64.20;;;15.20;99.90;;;;;;5020113;28;20475;-83
2023/05/09 05:36:16;;;;;;;130.15;65.45;;;15.20;99.90;;;;;;5009508;28;20041;-84
2023/05/09 05:38:42;;;;;;;143.77;71.25;;;15.30;99.90;;;;;;5045416;28;20377;-87
2023/05/09 05:41:10;;;;;;;151.77;74.50;;;15.40;99.90;;;;;;5027312;28;20755;-85
2023/05/09 05:43:35;;;;;;;152.57;73.05;;;15.50;99.90;;;;;;5029456;28;20049;-86
2023/05/09 05:46:01;;;;;;;146.48;72.78;;;15.30;99.90;;;;;;5026576;28;20037;-85
2023/05/09 05:48:27;;;;;;;140.75;68.72;;;15.40;99.90;;;;;;5029530;28;20038;-82
2023/05/09 05:50:52;;;;;;;143.13;72.78;;;15.40;99.90;;;;;;5025483;28;20061;-84
2023/05/09 05:53:30;;;;;;;143.82;73.85;;;15.40;99.90;;;;;;5031417;28;20033;-84
2023/05/09 05:55:59;;;;;;;144.30;73.20;;;15.40;99.90;;;;;;5024622;28;20053;-85
2023/05/09 05:58:25;;;;;;;130.50;72.40;;;15.50;99.90;;;;;;5022918;28;20053;-83
2023/05/09 06:00:51;;;;;;;126.00;69.38;;;15.50;99.90;;;;;;5022631;28;20045;-82
2023/05/09 06:03:17;;;;;;;137.30;72.22;;;15.50;99.90;;;;;;5040044;28;20103;-84
2023/05/09 06:05:46;;;;;;;117.97;67.40;;;15.60;99.90;;;;;;5024077;28;20133;-83
2023/05/09 06:08:12;;;;;;;113.13;65.38;;;15.80;99.90;;;;;;5022027;28;20094;-84
2023/05/09 06:10:37;;;;;;;120.00;65.90;;;15.70;99.90;;;;;;5021506;28;20714;-82
2023/05/09 06:13:03;;;;;;;110.30;63.80;;;15.70;99.90;;;;;;5005697;28;20438;-83
2023/05/09 06:15:28;;;;;;;115.38;66.93;;;15.80;99.90;;;;;;5040405;28;20045;-83
2023/05/09 06:17:54;;;;;;;105.63;60.65;;;15.80;99.90;;;;;;5025360;28;20041;-83
2023/05/09 06:20:19;;;;;;;107.45;62.33;;;15.80;99.90;;;;;;5027045;28;20046;-84
2023/05/09 06:22:45;;;;;;;95.05;58.25;;;15.80;99.90;;;;;;5024248;28;20405;-84
2023/05/09 06:25:11;;;;;;;81.95;54.63;;;15.90;99.90;;;;;;5019942;28;20040;-83
2023/05/09 06:27:45;;;;;;;98.63;58.77;;;15.90;99.90;;;;;;5006662;28;20036;-84
2023/05/09 06:30:11;;;;;;;90.20;53.63;;;15.90;99.90;;;;;;5005497;28;20299;-83
2023/05/09 06:32:37;;;;;;;85.65;52.20;;;15.90;99.90;;;;;;5038905;28;20045;-84
2023/05/09 06:35:03;;;;;;;77.38;51.03;;;15.90;99.90;;;;;;5004266;28;20095;-84
2023/05/09 06:37:32;;;;;;;85.97;51.83;;;15.90;99.90;;;;;;5021604;28;20045;-84
2023/05/09 06:39:58;;;;;;;76.65;49.47;;;15.90;99.90;;;;;;4999649;28;20415;-83
2023/05/09 06:42:23;;;;;;;75.60;47.25;;;16.10;99.90;;;;;;5022667;28;20060;-83
2023/05/09 06:44:49;;;;;;;69.40;46.78;;;15.90;99.90;;;;;;5028262;28;20487;-84
2023/05/09 06:47:15;;;;;;;59.95;44.10;;;16.20;99.90;;;;;;5022503;28;21917;-84
2023/05/09 06:49:40;;;;;;;62.58;41.72;;;15.90;99.90;;;;;;5005445;28;20049;-84
2023/05/09 06:52:08;;;;;;;54.22;38.55;;;16.20;99.90;;;;;;5023944;28;20048;-84
2023/05/09 06:54:33;;;;;;;46.17;35.47;;;15.80;99.90;;;;;;5020855;28;20033;-84
2023/05/09 06:56:59;;;;;;;50.45;36.97;;;15.80;99.90;;;;;;5021855;28;20030;-84
2023/05/09 06:59:26;;;;;;;47.58;35.55;;;16.00;99.90;;;;;;5018885;28;20220;-84
2023/05/09 07:01:51;;;;;;;53.60;37.20;;;15.90;99.90;;;;;;5022716;28;20047;-84
2023/05/09 07:04:17;;;;;;;49.15;34.75;;;15.80;99.90;;;;;;5020475;28;20033;-84
2023/05/09 07:06:43;;;;;;;44.97;35.78;;;15.70;99.90;;;;;;5021834;28;20076;-84
2023/05/09 07:09:08;;;;;;;48.10;37.22;;;16.00;99.90;;;;;;5024654;28;20037;-84
2023/05/09 07:11:35;;;;;;;51.80;37.13;;;15.80;99.90;;;;;;5026714;28;20050;-83
2023/05/09 07:14:01;;;;;;;49.70;36.53;;;15.90;99.90;;;;;;5020460;28;20052;-83
2023/05/09 07:16:28;;;;;;;49.63;35.13;;;15.90;99.90;;;;;;5022000;28;20543;-84
2023/05/09 07:18:54;;;;;;;55.13;38.30;;;15.90;99.90;;;;;;5020998;28;20041;-83
2023/05/09 07:21:20;;;;;;;51.35;37.58;;;16.40;99.90;;;;;;5021176;28;20045;-84
2023/05/09 07:23:45;;;;;;;52.88;38.58;;;16.40;99.90;;;;;;5022443;28;20048;-83
2023/05/09 07:26:11;;;;;;;46.47;36.13;;;16.60;99.90;;;;;;5027138;28;20152;-84
2023/05/09 07:28:37;;;;;;;47.80;36.50;;;16.40;99.90;;;;;;5021797;28;20045;-84
2023/05/09 07:31:04;;;;;;;45.42;35.78;;;16.40;99.90;;;;;;5020687;28;20081;-83
2023/05/09 07:33:30;;;;;;;50.65;36.83;;;16.40;99.90;;;;;;5027494;28;20393;-83
2023/05/09 07:35:58;;;;;;;46.10;35.03;;;16.50;99.90;;;;;;5036458;28;20071;-83
2023/05/09 07:38:23;;;;;;;53.08;37.80;;;16.50;99.90;;;;;;5004198;28;20042;-84
2023/05/09 07:40:49;;;;;;;50.58;36.28;;;16.50;99.90;;;;;;5024391;28;20068;-83
2023/05/09 07:43:14;;;;;;;53.53;36.75;;;16.50;99.90;;;;;;5022644;28;20048;-83
2023/05/09 07:45:40;;;;;;;50.65;38.17;;;16.60;99.90;;;;;;5022721;28;20088;-83
2023/05/09 07:48:06;;;;;;;51.75;36.65;;;16.60;99.90;;;;;;5021424;28;20096;-83
2023/05/09 07:50:32;;;;;;;53.38;37.72;;;16.60;99.90;;;;;;5019814;28;20412;-83
2023/05/09 07:52:58;;;;;;;53.55;37.75;;;16.60;99.90;;;;;;5022624;28;20484;-83
2023/05/09 07:55:24;;;;;;;51.38;37.88;;;16.60;99.90;;;;;;5019714;28;20136;-83
2023/05/09 07:57:50;;;;;;;51.45;36.92;;;16.50;99.90;;;;;;5026611;28;20113;-83
2023/05/09 08:00:16;;;;;;;49.88;37.63;;;16.50;99.90;;;;;;5037659;28;20053;-83
2023/05/09 08:02:41;;;;;;;50.17;37.72;;;16.50;99.90;;;;;;5020927;28;20076;-83
2023/05/09 08:05:10;;;;;;;55.28;38.60;;;16.60;99.90;;;;;;5021039;28;20079;-83
2023/05/09 08:07:35;;;;;;;51.00;38.60;;;16.60;99.90;;;;;;5019434;28;20089;-83
2023/05/09 08:10:01;;;;;;;57.70;38.00;;;16.60;99.90;;;;;;5023057;28;20080;-82
2023/05/09 08:12:27;;;;;;;53.35;37.30;;;16.70;99.90;;;;;;5022061;28;20119;-83
2023/05/09 08:14:52;;;;;;;52.50;37.70;;;16.70;99.90;;;;;;5024281;28;20049;-83
2023/05/09 08:17:18;;;;;;;53.42;37.95;;;16.80;99.90;;;;;;5022658;28;20045;-83
2023/05/09 08:19:44;;;;;;;56.65;37.55;;;16.90;99.90;;;;;;5026699;28;20042;-83
2023/05/09 08:22:16;;;;;;;53.95;37.67;;;16.80;99.90;;;;;;5037802;28;20049;-83
2023/05/09 08:24:42;;;;;;;50.80;38.03;;;16.90;99.90;;;;;;5002062;28;20056;-83
2023/05/09 08:27:07;;;;;;;50.85;38.42;;;17.00;99.90;;;;;;5020982;28;20041;-83
2023/05/09 08:29:34;;;;;;;49.88;36.63;;;17.00;99.90;;;;;;5021582;28;20033;-83
2023/05/09 08:32:00;;;;;;;52.63;36.42;;;17.10;99.90;;;;;;5021804;28;20037;-83
2023/05/09 08:34:26;;;;;;;48.92;36.83;;;17.60;99.90;;;;;;5024719;28;20068;-83
2023/05/09 08:36:52;;;;;;;46.67;36.17;;;17.10;99.90;;;;;;5019681;28;20037;-83
2023/05/09 08:39:18;;;;;;;49.28;36.05;;;17.10;99.90;;;;;;5022667;28;20116;-83
2023/05/09 08:41:44;;;;;;;37.53;31.33;;;17.10;99.90;;;;;;4988769;28;20037;-83
2023/05/09 08:44:10;;;;;;;39.65;31.25;;;17.00;99.90;;;;;;5019553;28;20115;-83
2023/05/09 08:46:39;;;;;;;43.83;32.38;;;17.10;99.90;;;;;;5037877;28;20046;-83
2023/05/09 08:49:06;;;;;;;41.58;31.42;;;17.20;99.90;;;;;;5007144;28;20072;-82
2023/05/09 08:51:32;;;;;;;36.65;29.95;;;17.30;99.90;;;;;;5001524;28;20049;-83
2023/05/09 08:53:58;;;;;;;40.95;30.45;;;17.40;99.90;;;;;;5018946;28;20049;-83
2023/05/09 08:56:25;;;;;;;34.85;27.40;;;17.40;99.90;;;;;;5050682;28;20786;-83
2023/05/09 08:58:51;;;;;;;38.80;29.30;;;17.50;99.90;;;;;;5020874;28;20167;-83
2023/05/09 09:01:17;;;;;;;34.42;29.20;;;17.60;99.90;;;;;;5023097;28;20643;-83
2023/05/09 09:03:46;;;;;;;37.85;27.63;;;17.50;99.90;;;;;;5020561;28;21807;-82
2023/05/09 09:06:12;;;;;;;33.28;27.58;;;17.50;99.90;;;;;;5004192;28;20131;-83
2023/05/09 09:08:39;;;;;;;36.30;27.42;;;17.60;99.90;;;;;;5024887;28;20405;-83
2023/05/09 09:11:06;;;;;;;33.97;27.50;;;17.60;99.90;;;;;;5020701;28;20546;-83
2023/05/09 09:13:36;;;;;;;33.92;26.27;;;17.60;99.90;;;;;;5003111;28;20034;-81
2023/05/09 09:16:02;;;;;;;32.33;26.75;;;17.50;99.90;;;;;;5020195;28;20045;-83
2023/05/09 09:18:29;;;;;;;34.88;27.63;;;17.50;99.90;;;;;;5021158;28;20412;-82
2023/05/09 09:21:04;;;;;;;39.45;31.02;;;17.60;99.90;;;;;;5026556;28;20045;-83
2023/05/09 09:23:31;;;;;;;37.78;28.83;;;17.60;99.90;;;;;;5020338;28;20065;-83
2023/05/09 09:25:58;;;;;;;30.58;26.17;;;17.60;99.90;;;;;;5023665;28;20037;-82
2023/05/09 09:28:24;;;;;;;35.22;28.70;;;17.60;99.90;;;;;;5054730;28;20046;-82
2023/05/09 09:30:50;;;;;;;33.13;26.52;;;17.60;99.90;;;;;;5003985;28;20041;-82
2023/05/09 09:33:20;;;;;;;34.05;27.55;;;17.70;99.90;;;;;;5017077;28;20037;-83
2023/05/09 09:35:47;;;;;;;34.65;27.90;;;17.80;99.90;;;;;;5019969;28;20054;-83
2023/05/09 09:38:13;;;;;;;29.23;24.85;;;17.90;99.90;;;;;;5002160;28;20089;-83
2023/05/09 09:40:39;;;;;;;31.67;24.67;;;18.00;99.90;;;;;;5023094;28;20100;-82
2023/05/09 09:43:06;;;;;;;27.88;24.52;;;18.20;99.90;;;;;;5020125;28;20048;-82
2023/05/09 09:45:31;;;;;;;26.08;22.55;;;18.30;99.90;;;;;;5025320;28;20060;-83
2023/05/09 09:47:57;;;;;;;26.63;23.00;;;18.40;99.90;;;;;;5009468;28;20041;-82
2023/05/09 09:50:24;;;;;;;24.42;21.88;;;18.60;99.90;;;;;;5019959;28;20073;-82
2023/05/09 09:52:51;;;;;;;26.75;20.88;;;18.60;99.90;;;;;;5021571;28;20049;-83
2023/05/09 09:55:18;;;;;;;30.80;22.13;;;18.60;99.90;;;;;;5021415;28;20060;-82
2023/05/09 09:57:45;;;;;;;24.27;20.95;;;18.60;99.90;;;;;;5019394;28;20087;-83
2023/05/09 10:00:12;;;;;;;22.25;19.83;;;18.80;99.90;;;;;;5020681;28;20128;-83
2023/05/09 10:02:48;;;;;;;24.50;20.83;;;18.80;99.90;;;;;;5021783;28;20050;-82
2023/05/09 10:05:21;;;;;;;21.98;19.65;;;18.80;99.90;;;;;;5017567;28;20038;-82
2023/05/09 10:08:00;;;;;;;25.80;19.65;;;18.90;99.90;;;;;;5037576;28;20466;-82
2023/05/09 10:10:54;;;;;;;24.20;20.63;;;18.90;99.90;;;;;;5038918;28;20045;-82
2023/05/09 10:13:20;;;;;;;19.90;17.75;;;18.90;99.90;;;;;;5021070;28;20044;-83
2023/05/09 10:15:46;;;;;;;25.42;20.40;;;18.80;99.90;;;;;;5052827;28;20049;-84
2023/05/09 10:18:18;;;;;;;21.83;19.20;;;18.80;99.90;;;;;;5052339;28;20045;-83
2023/05/09 10:20:45;;;;;;;20.17;18.17;;;18.70;99.90;;;;;;5037836;28;20042;-83
2023/05/09 10:23:14;;;;;;;25.42;19.48;;;18.70;99.90;;;;;;5021047;28;20067;-83
2023/05/09 10:25:47;;;;;;;23.08;19.48;;;18.80;99.90;;;;;;5042458;28;20033;-83
2023/05/09 10:28:17;;;;;;;24.10;19.77;;;18.90;99.90;;;;;;5027138;28;20045;-82
2023/05/09 10:30:58;;;;;;;20.30;17.05;;;18.90;99.90;;;;;;5039316;28;20041;-82
2023/05/09 10:33:33;;;;;;;19.60;17.60;;;19.00;99.90;;;;;;5035847;28;20464;-83
2023/05/09 10:36:00;;;;;;;20.25;18.23;;;19.00;99.90;;;;;;5024248;28;20207;-82
2023/05/09 10:38:26;;;;;;;19.88;17.77;;;19.10;99.90;;;;;;5051778;28;20053;-82
2023/05/09 10:40:59;;;;;;;19.02;17.00;;;19.40;99.90;;;;;;5022262;28;20056;-82
2023/05/09 10:43:26;;;;;;;18.52;16.70;;;19.30;99.90;;;;;;5022752;28;20042;-83
2023/05/09 10:46:28;;;;;;;18.08;15.90;;;19.40;99.90;;;;;;5022888;28;20065;-81
2023/05/09 10:49:01;;;;;;;19.73;16.63;;;19.40;99.90;;;;;;5025520;28;20610;-82
2023/05/09 10:52:04;;;;;;;19.60;17.60;;;19.40;99.90;;;;;;5008195;28;20091;-81
2023/05/09 11:03:18;;;;;;;18.27;16.58;;;19.30;99.90;;;;;;4986314;28;20092;-83
2023/05/09 11:11:06;;;;;;;16.65;14.07;;;19.50;99.90;;;;;;4893118;29;20153;-82
2023/05/09 11:14:56;;;;;;;14.95;12.50;;;19.30;99.90;;;;;;4935155;29;20128;-83
2023/05/09 11:29:32;;;;;;;12.50;11.15;;;19.30;99.90;;;;;;4894124;29;20075;-83
2023/05/09 11:43:59;;;;;;;15.07;10.15;;;19.60;99.90;;;;;;4967121;28;20460;-85
2023/05/09 12:01:44;;;;;;;11.48;10.32;;;20.00;99.90;;;;;;4966155;28;20085;-84
2023/05/09 12:08:37;;;;;;;12.07;10.63;;;19.90;99.90;;;;;;4964040;28;20058;-83
2023/05/09 13:04:33;;;;;;;17.20;15.60;;;19.40;99.90;;;;;;5001685;28;20105;-83
2023/05/09 13:07:44;;;;;;;17.73;16.13;;;19.40;99.90;;;;;;5004218;28;20120;-84
2023/05/09 13:10:53;;;;;;;19.35;16.38;;;19.20;99.90;;;;;;5021568;28;20045;-85
2023/05/09 13:18:34;;;;;;;20.17;17.20;;;19.00;99.90;;;;;;5002742;28;20068;-83
2023/05/09 13:22:03;;;;;;;18.98;17.13;;;18.90;99.90;;;;;;5001318;28;20506;-83
2023/05/09 13:25:11;;;;;;;19.75;17.60;;;18.80;99.90;;;;;;4943659;28;20079;-83
2023/05/09 13:28:16;;;;;;;20.40;18.13;;;18.70;99.90;;;;;;4932446;28;20053;-84
2023/05/09 13:31:25;;;;;;;20.05;17.42;;;18.70;99.90;;;;;;5033818;28;20053;-84
2023/05/09 13:35:06;;;;;;;19.42;16.95;;;18.40;99.90;;;;;;5008958;28;20128;-85
2023/05/09 13:38:48;;;;;;;18.65;16.95;;;18.50;99.90;;;;;;5019699;28;20036;-85
2023/05/09 13:41:34;;;;;;;18.65;16.83;;;18.30;99.90;;;;;;4998582;28;20084;-85
2023/05/09 13:44:30;;;;;;;20.33;18.42;;;18.30;99.90;;;;;;5013113;28;20068;-85
2023/05/09 13:47:22;;;;;;;20.83;18.83;;;18.20;99.90;;;;;;4985657;28;20069;-85
2023/05/09 13:50:09;;;;;;;20.13;18.13;;;18.20;99.90;;;;;;4983749;28;20471;-85
2023/05/09 13:52:45;;;;;;;19.60;17.55;;;18.10;99.90;;;;;;4999212;28;20105;-84
2023/05/09 13:55:11;;;;;;;19.10;17.20;;;18.40;99.90;;;;;;4987643;28;20132;-84
2023/05/09 13:57:36;;;;;;;19.08;16.60;;;18.10;99.90;;;;;;5011647;28;20129;-84
2023/05/09 14:00:03;;;;;;;18.67;16.98;;;18.10;99.90;;;;;;5024609;28;20033;-85
2023/05/09 14:02:28;;;;;;;21.63;17.70;;;18.10;99.90;;;;;;5042430;28;20046;-85
2023/05/09 14:05:21;;;;;;;20.52;18.45;;;18.30;99.90;;;;;;5023980;28;20034;-83
2023/05/09 14:07:47;;;;;;;18.38;16.67;;;18.10;99.90;;;;;;5018702;28;20044;-85
2023/05/09 14:10:13;;;;;;;18.50;16.70;;;18.10;99.90;;;;;;5023131;28;20033;-84
2023/05/09 15:04:47;;;;;;;7.38;5.50;;;17.40;99.90;;;;;;4988261;28;20048;-85
2023/05/09 15:07:27;;;;;;;5.00;4.63;;;17.30;99.90;;;;;;5000788;28;20564;-86
2023/05/09 15:10:14;;;;;;;5.43;4.50;;;17.30;99.90;;;;;;5017359;28;20053;-84
2023/05/09 15:13:19;;;;;;;5.05;4.18;;;17.50;99.90;;;;;;5015479;28;20121;-83
2023/05/09 15:16:05;;;;;;;5.15;4.60;;;17.20;99.90;;;;;;5022126;28;20042;-86
2023/05/09 15:18:32;;;;;;;;;;;17.10;99.90;;;;;;5005808;28;20041;-85
2023/05/09 15:21:27;;;;;;;4.43;4.13;;;17.10;99.90;;;;;;5022353;28;20287;-87
2023/05/09 15:24:50;;;;;;;4.78;4.38;;;17.10;99.90;;;;;;5017388;28;20060;-85
2023/05/09 15:46:31;;;;;;;2.85;2.65;;;16.80;99.90;;;;;;5026272;28;20033;-87
2023/05/09 15:49:36;;;;;;;2.65;2.45;;;16.70;99.90;;;;;;5024503;28;20562;-86